Time;durP1;ratioP1;P1;durP2;ratioP2;P2;SDS_P1;SDS_P2;PMS_P1;PMS_P2;Temp;Humidity;BMP_temperature;BMP_pressure;BME280_temperature;BME280_humidity;BME280_pressure;Samples;Min_cycle;Max_cycle;Signal;HPM_P1;HPM_P2
2024/03/04 00:01:43;;;;;;;28.13;12.83;;;13.30;99.90;;;13.10;62.80;100169.84;6108379;22;115290;-37
2024/03/04 00:04:12;;;;;;;28.83;13.27;;;13.20;99.90;;;13.04;62.78;100175.50;6112206;22;116774;-39
2024/03/04 00:06:38;;;;;;;21.97;11.57;;;13.10;99.90;;;12.91;63.37;100179.72;6096246;22;97943;-38
2024/03/04 00:09:04;;;;;;;28.57;12.03;;;13.00;99.90;;;12.88;63.35;100185.19;6111803;22;100104;-39
2024/03/04 00:11:31;;;;;;;28.67;13.57;;;12.90;99.90;;;12.89;63.27;100186.91;6110844;22;99458;-37
2024/03/04 00:13:56;;;;;;;29.13;12.50;;;12.90;99.90;;;12.68;63.82;100189.72;6107480;22;97130;-38
2024/03/04 00:16:22;;;;;;;30.83;12.53;;;12.80;99.90;;;12.78;63.38;100196.25;6100728;22;97394;-38
2024/03/04 00:18:48;;;;;;;27.37;12.43;;;12.90;99.90;;;12.73;64.00;100185.06;6092293;22;113046;-38
2024/03/04 00:21:15;;;;;;;22.73;11.60;;;12.80;99.90;;;12.60;64.38;100197.19;6102658;22;104976;-38
2024/03/04 00:23:40;;;;;;;30.37;13.70;;;12.70;99.90;;;12.56;64.41;100195.63;6114294;22;97047;-49
2024/03/04 00:26:07;;;;;;;27.03;11.80;;;12.70;99.90;;;12.57;64.42;100199.13;6087240;22;110839;-37
2024/03/04 00:28:33;;;;;;;28.83;12.50;;;12.70;99.90;;;12.61;64.30;100198.06;6126436;22;98067;-38
2024/03/04 00:30:58;;;;;;;27.10;12.87;;;12.70;99.90;;;12.71;64.08;100208.06;6108468;22;125266;-38
2024/03/04 00:33:24;;;;;;;30.63;13.00;;;12.80;99.90;;;12.76;63.67;100208.72;6118589;22;115856;-37
2024/03/04 00:35:50;;;;;;;25.90;12.77;;;12.80;99.90;;;12.73;63.92;100219.47;6110424;22;97453;-38
2024/03/04 00:38:18;;;;;;;24.60;11.50;;;12.90;99.90;;;12.80;63.71;100215.53;6077270;22;98343;-36
2024/03/04 00:40:44;;;;;;;29.67;12.27;;;12.90;99.90;;;12.74;63.92;100215.88;6062041;22;98159;-38
2024/03/04 00:43:10;;;;;;;27.27;11.97;;;12.80;99.90;;;12.68;63.84;100226.75;6121841;22;109955;-38
2024/03/04 00:45:36;;;;;;;26.33;11.13;;;12.80;99.90;;;12.67;63.65;100235.63;6111830;22;97598;-38
2024/03/04 00:48:02;;;;;;;28.63;12.63;;;12.90;99.90;;;12.61;64.12;100230.66;6109986;22;99998;-37
2024/03/04 00:50:29;;;;;;;23.80;11.87;;;12.70;99.90;;;12.61;64.25;100241.25;6096318;22;98667;-38
2024/03/04 00:53:02;;;;;;;29.67;12.77;;;12.70;99.90;;;12.53;64.56;100232.81;6107161;22;97359;-37
2024/03/04 00:55:37;;;;;;;25.37;13.43;;;12.70;99.90;;;12.54;64.96;100223.94;6093175;22;97442;-38
2024/03/04 00:58:03;;;;;;;25.63;13.03;;;12.60;99.90;;;12.57;64.57;100233.50;6090605;22;104622;-38
2024/03/04 01:00:29;;;;;;;26.97;11.97;;;12.70;99.90;;;12.46;64.76;100234.06;6101053;22;122492;-38
2024/03/04 01:02:54;;;;;;;28.87;11.83;;;12.60;99.90;;;12.51;64.74;100237.34;6120528;22;107723;-36
2024/03/04 01:05:20;;;;;;;26.80;12.67;;;12.60;99.90;;;12.53;65.06;100238.13;6110536;22;97143;-36
2024/03/04 01:07:46;;;;;;;26.77;12.37;;;12.70;99.90;;;12.51;64.75;100245.28;6106255;22;100655;-36
2024/03/04 01:10:12;;;;;;;30.30;13.10;;;12.60;99.90;;;12.67;64.12;100246.22;6069142;22;115657;-36
2024/03/04 01:12:37;;;;;;;26.07;12.63;;;12.70;99.90;;;12.68;64.14;100263.81;6098289;22;97211;-38
2024/03/04 01:15:06;;;;;;;33.70;12.90;;;12.80;99.90;;;12.61;64.76;100246.53;6099952;22;97679;-37
2024/03/04 01:17:33;;;;;;;29.73;12.47;;;12.70;99.90;;;12.59;64.20;100256.34;6110870;22;104669;-37
2024/03/04 01:20:02;;;;;;;32.23;14.40;;;12.70;99.90;;;12.55;64.86;100257.41;6023916;22;99208;-38
2024/03/04 01:22:30;;;;;;;29.50;13.57;;;12.70;99.90;;;12.68;64.33;100262.94;6080163;22;97349;-38
2024/03/04 01:24:56;;;;;;;27.33;12.80;;;12.70;99.90;;;12.72;64.24;100269.78;6116743;22;97508;-37
2024/03/04 01:27:25;;;;;;;25.30;13.23;;;12.80;99.90;;;12.69;64.34;100265.50;6097208;22;110607;-36
2024/03/04 01:29:51;;;;;;;30.40;13.47;;;12.80;99.90;;;12.78;64.26;100269.50;6115807;22;97990;-38
2024/03/04 01:32:19;;;;;;;28.80;12.30;;;12.80;99.90;;;12.73;64.00;100277.69;6108888;22;97750;-38
2024/03/04 01:34:48;;;;;;;29.73;13.10;;;12.80;99.90;;;12.62;64.41;100282.63;6110876;22;97840;-38
2024/03/04 01:37:14;;;;;;;28.90;13.10;;;12.70;99.90;;;12.60;64.15;100287.16;6116198;22;118097;-38
2024/03/04 01:39:40;;;;;;;27.93;12.80;;;12.70;99.90;;;12.70;63.82;100277.81;6095010;22;106047;-37
2024/03/04 01:42:06;;;;;;;31.10;13.87;;;12.80;99.90;;;12.61;64.33;100282.72;6108239;22;97409;-36
2024/03/04 01:44:38;;;;;;;30.23;15.20;;;12.70;99.90;;;12.72;63.82;100286.50;6097901;22;97608;-38
2024/03/04 01:47:17;;;;;;;29.30;14.70;;;12.70;99.90;;;12.64;64.03;100287.84;6101430;22;103369;-38
2024/03/04 01:49:44;;;;;;;28.53;12.77;;;12.70;99.90;;;12.55;64.18;100288.28;6094027;22;98639;-37
2024/03/04 01:52:13;;;;;;;27.10;12.43;;;12.70;99.90;;;12.53;64.73;100291.03;6111982;22;108027;-36
2024/03/04 01:54:45;;;;;;;33.73;14.37;;;12.60;99.90;;;12.56;64.05;100296.16;6109632;22;97089;-38
2024/03/04 01:57:16;;;;;;;28.57;13.60;;;12.70;99.90;;;12.58;64.41;100302.22;6095500;22;98235;-36
2024/03/04 01:59:46;;;;;;;28.07;14.27;;;12.70;99.90;;;12.68;64.14;100306.13;6091167;22;98201;-37
2024/03/04 02:02:12;;;;;;;31.43;14.93;;;12.70;99.90;;;12.78;63.12;100312.69;6097306;22;97494;-36
2024/03/04 02:04:40;;;;;;;29.10;13.77;;;12.80;99.90;;;12.74;63.92;100303.19;6039054;22;107989;-38
2024/03/04 02:07:07;;;;;;;29.80;13.63;;;12.80;99.90;;;12.74;63.89;100310.28;6044071;22;99959;-37
2024/03/04 02:09:35;;;;;;;26.90;14.07;;;12.70;99.90;;;12.50;64.38;100307.06;6078276;22;107254;-37
2024/03/04 02:12:03;;;;;;;28.90;13.80;;;12.60;99.90;;;12.56;64.60;100312.03;6061395;22;98057;-36
2024/03/04 02:14:30;;;;;;;30.23;13.30;;;12.60;99.90;;;12.74;63.70;100308.50;6093703;22;97595;-37
2024/03/04 02:16:56;;;;;;;32.57;14.70;;;12.70;99.90;;;12.65;63.89;100311.59;6110656;22;98481;-37
2024/03/04 02:19:22;;;;;;;27.63;13.47;;;12.70;99.90;;;12.51;64.11;100324.63;6112933;22;97553;-37
2024/03/04 02:22:00;;;;;;;25.77;13.53;;;12.60;99.90;;;12.59;63.86;100324.28;6109974;22;117809;-36
2024/03/04 02:24:26;;;;;;;25.83;12.37;;;12.60;99.90;;;12.52;64.04;100321.91;6116525;22;97434;-35
2024/03/04 02:26:55;;;;;;;24.47;12.10;;;12.60;99.90;;;12.49;64.00;100327.38;6111124;22;126543;-43
2024/03/04 02:29:20;;;;;;;22.70;9.90;;;12.60;99.90;;;12.46;63.52;100327.53;6096376;22;109466;-38
2024/03/04 02:31:47;;;;;;;25.63;10.67;;;12.60;99.90;;;12.37;64.38;100321.81;6110102;22;106793;-39
2024/03/04 02:34:14;;;;;;;20.10;10.60;;;12.50;99.90;;;12.36;64.22;100335.97;6107934;22;110462;-37
2024/03/04 02:36:44;;;;;;;20.03;9.33;;;12.50;99.90;;;12.32;64.17;100331.75;6034600;22;120781;-38
2024/03/04 02:39:11;;;;;;;16.43;9.07;;;12.40;99.90;;;12.29;64.31;100332.75;6102238;22;106803;-40
2024/03/04 02:41:40;;;;;;;20.27;9.50;;;12.40;99.90;;;12.27;64.27;100337.25;6113342;22;97687;-38
2024/03/04 02:44:08;;;;;;;17.00;8.23;;;12.40;99.90;;;12.17;64.87;100339.50;6109749;22;97705;-38
2024/03/04 02:46:34;;;;;;;24.00;9.63;;;12.30;99.90;;;12.21;64.82;100338.41;6109321;22;117857;-38
2024/03/04 02:49:00;;;;;;;19.00;9.17;;;12.30;99.90;;;12.20;64.88;100341.13;6119841;22;99225;-38
2024/03/04 02:51:26;;;;;;;23.40;9.73;;;12.30;99.90;;;12.37;64.65;100342.97;6109666;22;97166;-37
2024/03/04 02:53:52;;;;;;;14.27;8.10;;;12.30;99.90;;;12.32;64.33;100350.28;6079560;22;98421;-38
2024/03/04 02:56:17;;;;;;;18.43;9.80;;;12.40;99.90;;;12.53;63.46;100365.09;6084152;22;105108;-36
2024/03/04 02:58:43;;;;;;;19.67;9.80;;;12.50;99.90;;;12.58;63.44;100368.38;6078103;22;101413;-37
2024/03/04 03:01:09;;;;;;;26.80;11.73;;;12.50;99.90;;;12.49;63.79;100364.41;6112860;22;97318;-36
2024/03/04 03:03:35;;;;;;;20.83;10.87;;;12.50;99.90;;;12.58;63.33;100372.81;6111599;22;111014;-36
2024/03/04 03:06:00;;;;;;;23.67;10.93;;;12.60;99.90;;;12.78;62.69;100368.28;6118387;22;97908;-37
2024/03/04 03:08:26;;;;;;;23.47;10.83;;;12.70;99.90;;;12.71;62.20;100385.38;6110713;22;100237;-38
2024/03/04 03:10:54;;;;;;;16.83;8.73;;;12.80;99.90;;;12.80;62.14;100384.06;6106161;22;117561;-37
2024/03/04 03:13:20;;;;;;;18.97;10.17;;;12.80;99.90;;;12.75;62.13;100392.25;6111234;22;97367;-38
2024/03/04 03:15:48;;;;;;;19.03;9.77;;;12.80;99.90;;;12.71;62.39;100401.25;6107475;22;110633;-37
2024/03/04 03:18:15;;;;;;;17.40;8.57;;;12.70;99.90;;;12.94;61.74;100401.94;6089461;22;98067;-37
2024/03/04 03:20:41;;;;;;;15.87;8.27;;;12.80;99.90;;;12.91;62.11;100410.03;6093985;22;97187;-36
2024/03/04 03:23:07;;;;;;;15.27;8.47;;;12.80;99.90;;;12.97;61.79;100396.47;6113335;22;97448;-42
2024/03/04 03:25:33;;;;;;;16.70;8.23;;;12.90;99.90;;;13.03;61.33;100417.38;6119114;22;106269;-38
2024/03/04 03:27:58;;;;;;;16.47;7.97;;;12.90;99.90;;;13.13;60.50;100413.31;6109313;22;111172;-38
2024/03/04 03:30:27;;;;;;;16.30;7.10;;;13.00;99.90;;;12.97;60.87;100422.94;6102344;22;102549;-38
2024/03/04 03:32:53;;;;;;;16.47;8.10;;;13.00;99.90;;;13.08;60.62;100415.34;6124897;22;97417;-38
2024/03/04 03:35:19;;;;;;;15.30;8.13;;;13.00;99.90;;;13.00;61.52;100422.78;6107462;22;126018;-39
2024/03/04 03:37:46;;;;;;;13.87;6.87;;;12.90;99.90;;;13.05;60.65;100434.03;6094752;22;113557;-39
2024/03/04 03:40:11;;;;;;;14.70;7.23;;;13.00;99.90;;;12.89;60.95;100433.06;6097416;22;97662;-36
2024/03/04 03:42:37;;;;;;;14.70;7.20;;;12.90;99.90;;;13.15;60.25;100431.78;6129542;22;109235;-38
2024/03/04 03:45:04;;;;;;;13.23;6.63;;;13.00;99.90;;;12.96;60.41;100437.13;6110471;22;102738;-38
2024/03/04 03:47:30;;;;;;;11.47;7.00;;;12.90;99.90;;;12.90;60.57;100437.44;6107937;22;99308;-39
2024/03/04 03:49:56;;;;;;;17.20;7.27;;;12.80;99.90;;;12.79;61.39;100436.16;6106489;22;97395;-36
2024/03/04 03:52:22;;;;;;;13.17;6.60;;;12.80;99.90;;;12.65;61.50;100438.59;6104730;22;97490;-38
2024/03/04 03:54:48;;;;;;;14.57;7.27;;;12.70;99.90;;;12.84;61.54;100440.34;6105273;22;122839;-37
2024/03/04 03:57:14;;;;;;;12.40;6.67;;;12.70;99.90;;;12.70;61.36;100447.16;6111469;22;98856;-36
2024/03/04 03:59:39;;;;;;;12.40;6.37;;;12.70;99.90;;;12.65;61.94;100449.19;6108172;22;115694;-37
2024/03/04 04:02:05;;;;;;;9.80;5.43;;;12.60;99.90;;;12.85;60.71;100455.31;6097275;22;97518;-36
2024/03/04 04:04:31;;;;;;;11.03;5.43;;;12.70;99.90;;;12.76;60.53;100457.47;6102857;22;127084;-37
2024/03/04 04:06:57;;;;;;;8.20;4.80;;;12.80;99.90;;;12.73;60.32;100451.44;6103882;22;97946;-39
2024/03/04 04:09:23;;;;;;;13.50;5.17;;;12.70;99.90;;;12.60;60.72;100460.94;6115222;22;97742;-36
2024/03/04 04:11:49;;;;;;;8.73;4.23;;;12.70;99.90;;;12.69;60.42;100456.03;6099344;22;97282;-36
2024/03/04 04:14:14;;;;;;;10.47;4.77;;;12.60;99.90;;;12.65;60.72;100449.19;6089240;22;107858;-37
2024/03/04 04:16:40;;;;;;;10.47;5.03;;;12.60;99.90;;;12.77;60.64;100453.91;6107943;22;108548;-38
2024/03/04 04:19:06;;;;;;;10.93;4.93;;;12.70;99.90;;;12.88;60.01;100455.19;6065553;22;97369;-36
2024/03/04 04:21:32;;;;;;;6.27;4.37;;;12.80;99.90;;;12.79;59.75;100462.63;6109587;22;112914;-38
2024/03/04 04:23:58;;;;;;;8.93;4.43;;;12.80;99.90;;;12.67;60.03;100468.50;6100918;22;97978;-36
2024/03/04 04:26:28;;;;;;;9.73;4.37;;;12.70;99.90;;;12.77;60.05;100471.56;6110942;22;118269;-38
2024/03/04 04:28:54;;;;;;;10.83;4.53;;;12.70;99.90;;;12.80;61.12;100474.91;6098093;22;97386;-37
2024/03/04 04:31:23;;;;;;;7.60;4.00;;;12.70;99.90;;;12.80;59.68;100474.06;6113159;22;99219;-36
2024/03/04 04:33:50;;;;;;;10.23;4.83;;;12.70;99.90;;;12.79;59.85;100475.84;6092868;22;103228;-36
2024/03/04 04:36:16;;;;;;;9.07;4.40;;;12.70;99.90;;;13.04;59.12;100482.63;6110069;22;97614;-38
2024/03/04 04:38:44;;;;;;;7.03;3.73;;;12.90;99.90;;;12.97;59.31;100483.84;6108934;22;97942;-36
2024/03/04 04:41:10;;;;;;;9.50;3.70;;;12.90;99.90;;;12.91;59.23;100478.84;6065366;22;101571;-38
2024/03/04 04:43:38;;;;;;;8.10;4.47;;;12.90;99.90;;;13.01;58.92;100477.47;6094257;22;99311;-38
2024/03/04 04:46:04;;;;;;;5.97;4.03;;;12.90;99.90;;;13.13;59.27;100487.47;6117192;22;99939;-40
2024/03/04 04:48:30;;;;;;;7.93;4.20;;;12.90;99.90;;;12.79;59.08;100494.38;6108317;22;115820;-40
2024/03/04 04:50:56;;;;;;;8.10;4.30;;;12.80;99.90;;;12.92;60.03;100477.91;6109760;22;106694;-38
2024/03/04 04:53:23;;;;;;;5.70;3.30;;;12.80;99.90;;;13.04;59.97;100487.94;6112240;22;102053;-37
2024/03/04 04:55:50;;;;;;;7.23;3.87;;;12.80;99.90;;;12.98;59.86;100486.41;6095032;22;99212;-40
2024/03/04 04:58:17;;;;;;;6.93;3.73;;;12.90;99.90;;;13.06;59.32;100488.72;6072933;22;97838;-39
2024/03/04 05:00:43;;;;;;;10.33;3.67;;;12.90;99.90;;;12.98;60.04;100493.50;6104686;22;98655;-38
2024/03/04 05:03:10;;;;;;;11.87;4.57;;;12.80;99.90;;;13.03;58.70;100494.16;6107978;22;97658;-37
2024/03/04 05:05:35;;;;;;;10.53;4.43;;;12.90;99.90;;;13.05;59.57;100493.16;6098988;22;97308;-39
2024/03/04 05:08:02;;;;;;;6.93;4.37;;;12.90;99.90;;;13.19;58.65;100496.94;6104122;22;110779;-38
2024/03/04 05:10:27;;;;;;;9.70;5.20;;;13.00;99.90;;;13.15;57.74;100500.63;6120593;22;100190;-38
2024/03/04 05:12:53;;;;;;;8.20;3.67;;;13.00;99.90;;;13.15;58.68;100496.19;6109833;22;98455;-37
2024/03/04 05:15:19;;;;;;;7.97;3.67;;;13.00;99.90;;;13.14;58.29;100505.06;6105894;22;98975;-42
2024/03/04 05:17:46;;;;;;;8.80;3.97;;;13.00;99.90;;;13.11;58.17;100502.56;6110947;22;97016;-36
2024/03/04 05:20:15;;;;;;;6.63;3.43;;;13.00;99.90;;;13.17;58.92;100510.25;6110201;22;97261;-38
2024/03/04 05:22:42;;;;;;;8.77;3.87;;;13.00;99.90;;;13.04;58.80;100509.09;6113834;22;107189;-41
2024/03/04 05:25:08;;;;;;;8.50;3.73;;;12.90;99.90;;;13.08;58.11;100502.72;6112027;22;97359;-38
2024/03/04 05:27:34;;;;;;;9.33;4.30;;;13.00;99.90;;;13.06;58.14;100512.53;6122423;22;97723;-37
2024/03/04 05:30:00;;;;;;;5.03;3.07;;;13.00;99.90;;;13.18;58.22;100501.38;6110744;22;97461;-39
2024/03/04 05:32:26;;;;;;;5.53;3.80;;;13.00;99.90;;;12.97;58.81;100515.63;6108990;22;114206;-36
2024/03/04 05:34:51;;;;;;;12.10;4.40;;;12.90;99.90;;;13.03;57.89;100517.97;6111264;22;105387;-39
2024/03/04 05:37:17;;;;;;;6.93;3.73;;;13.00;99.90;;;12.90;58.85;100516.84;6113425;22;116207;-37
2024/03/04 05:39:49;;;;;;;10.33;4.33;;;12.80;99.90;;;12.84;60.11;100522.41;6092719;22;97378;-36
2024/03/04 05:42:15;;;;;;;5.80;3.57;;;12.70;99.90;;;13.11;59.39;100516.66;6101354;22;99548;-38
2024/03/04 05:44:45;;;;;;;7.77;3.80;;;12.90;99.90;;;12.98;58.85;100525.28;6073589;22;99138;-38
2024/03/04 05:47:13;;;;;;;10.67;4.07;;;12.90;99.90;;;12.97;59.96;100523.56;6103911;22;98178;-37
2024/03/04 05:49:38;;;;;;;6.83;4.13;;;12.80;99.90;;;13.05;58.19;100511.69;6110040;22;97236;-38
2024/03/04 05:52:04;;;;;;;8.27;3.83;;;12.90;99.90;;;13.10;58.26;100516.75;6132212;22;101324;-38
2024/03/04 05:54:32;;;;;;;7.77;4.23;;;13.00;99.90;;;13.16;58.72;100519.09;6090660;22;104156;-37
2024/03/04 05:56:57;;;;;;;11.10;4.30;;;13.00;99.90;;;13.04;58.48;100525.84;6107881;22;97606;-38
2024/03/04 05:59:23;;;;;;;7.43;2.70;;;12.90;99.90;;;13.08;58.86;100527.41;6119309;22;108400;-40
2024/03/04 06:01:49;;;;;;;9.53;3.73;;;12.90;99.90;;;13.26;58.17;100530.13;6110974;22;121450;-39
2024/03/04 06:04:15;;;;;;;8.70;3.83;;;13.00;99.90;;;13.14;58.90;100542.13;6109360;22;97397;-38
2024/03/04 06:06:40;;;;;;;5.93;4.00;;;12.90;99.90;;;13.28;58.81;100538.84;6096584;22;101932;-37
2024/03/04 06:09:08;;;;;;;9.77;4.47;;;13.00;99.90;;;13.28;58.34;100552.97;6109677;22;103320;-36
2024/03/04 06:11:34;;;;;;;10.40;4.63;;;13.10;99.90;;;13.29;57.88;100552.03;6097608;22;98857;-38
2024/03/04 06:14:00;;;;;;;8.73;4.77;;;13.10;99.90;;;13.33;57.88;100564.22;6114863;22;97930;-36
2024/03/04 06:16:26;;;;;;;10.90;4.70;;;13.10;99.90;;;13.48;58.24;100553.81;6116082;22;104509;-35
2024/03/04 06:18:51;;;;;;;10.53;4.33;;;13.20;99.90;;;13.42;57.87;100564.69;6111817;22;101203;-35
2024/03/04 06:21:17;;;;;;;7.77;4.20;;;13.20;99.90;;;13.54;57.68;100566.72;6103181;22;111065;-38
2024/03/04 06:23:43;;;;;;;10.97;5.07;;;13.30;99.90;;;13.47;57.42;100581.22;6110842;22;98081;-37
2024/03/04 06:26:11;;;;;;;12.63;4.87;;;13.20;99.90;;;13.63;57.16;100576.91;6086974;22;103818;-37
2024/03/04 06:28:40;;;;;;;11.87;5.10;;;13.30;99.90;;;13.67;57.38;100573.16;6095577;22;97371;-36
2024/03/04 06:31:06;;;;;;;10.67;4.97;;;13.30;99.90;;;13.55;57.03;100579.06;6086142;22;99454;-38
2024/03/04 06:33:32;;;;;;;10.10;4.27;;;13.30;99.90;;;13.61;57.58;100578.75;6093361;22;120753;-39
2024/03/04 06:35:58;;;;;;;8.43;4.67;;;13.30;99.90;;;13.47;58.29;100581.22;6100634;22;97532;-36
2024/03/04 06:38:25;;;;;;;5.13;3.07;;;13.20;99.90;;;13.70;57.59;100588.91;6108210;22;97184;-39
2024/03/04 06:40:54;;;;;;;8.70;3.63;;;13.30;99.90;;;13.54;57.49;100582.63;6117761;22;105863;-37
2024/03/04 06:43:20;;;;;;;8.10;4.27;;;13.30;99.90;;;13.42;57.15;100593.81;6083058;22;112113;-38
2024/03/04 06:45:48;;;;;;;10.40;4.40;;;13.20;99.90;;;13.07;58.43;100599.84;6106248;22;116142;-38
2024/03/04 06:48:14;;;;;;;6.10;2.60;;;13.00;99.90;;;12.88;59.17;100603.44;6108145;22;97272;-40
2024/03/04 06:50:40;;;;;;;8.97;4.37;;;12.80;99.90;;;12.70;60.07;100610.38;6097107;22;98013;-37
2024/03/04 06:53:08;;;;;;;8.97;3.93;;;12.70;99.90;;;12.82;60.59;100604.53;6109013;22;102737;-36
2024/03/04 06:55:37;;;;;;;8.17;3.90;;;12.70;99.90;;;12.67;60.00;100615.81;6093663;22;97419;-38
2024/03/04 06:58:03;;;;;;;11.43;4.00;;;12.60;99.90;;;12.95;59.87;100604.84;6096265;22;97580;-37
2024/03/04 07:00:32;;;;;;;7.33;3.03;;;12.70;99.90;;;13.04;58.69;100609.72;6074945;22;103531;-39
2024/03/04 07:02:58;;;;;;;8.57;5.10;;;12.90;99.90;;;12.98;58.75;100615.28;6080569;22;100258;-36
2024/03/04 07:05:24;;;;;;;11.33;4.63;;;12.90;99.90;;;12.98;59.10;100616.16;6107052;22;111573;-40
2024/03/04 07:07:52;;;;;;;8.27;4.37;;;12.80;99.90;;;12.93;59.10;100607.56;6093304;22;97417;-39
2024/03/04 07:10:21;;;;;;;7.87;4.37;;;12.80;99.90;;;12.85;59.50;100614.13;6092967;22;98388;-37
2024/03/04 07:12:47;;;;;;;9.53;4.40;;;12.70;99.90;;;12.77;59.80;100610.06;6131742;22;97909;-37
2024/03/04 07:15:13;;;;;;;9.97;3.70;;;12.70;99.90;;;12.80;59.38;100612.56;6108438;22;97184;-37
2024/03/04 07:17:38;;;;;;;9.67;3.60;;;12.70;99.90;;;12.65;60.04;100617.69;6102678;22;107872;-37
2024/03/04 07:20:09;;;;;;;7.47;3.73;;;12.60;99.90;;;12.77;59.87;100623.28;6112019;22;99740;-39
2024/03/04 07:22:36;;;;;;;10.27;4.13;;;12.60;99.90;;;12.84;59.42;100623.00;6107670;22;101686;-38
2024/03/04 07:25:06;;;;;;;6.60;3.27;;;12.70;99.90;;;12.74;59.55;100618.16;6109319;22;97479;-43
2024/03/04 07:27:32;;;;;;;8.17;4.13;;;12.70;99.90;;;12.57;60.57;100620.66;6076511;22;97203;-39
2024/03/04 07:29:58;;;;;;;7.23;4.23;;;12.50;99.90;;;12.56;60.87;100623.38;6106631;22;123785;-38
2024/03/04 07:32:23;;;;;;;9.57;3.50;;;12.40;99.90;;;12.69;61.22;100630.69;6091793;22;121275;-37
2024/03/04 07:34:52;;;;;;;8.47;3.77;;;12.50;99.90;;;12.57;60.44;100628.59;6118973;22;97598;-38
2024/03/04 07:37:18;;;;;;;7.83;4.03;;;12.50;99.90;;;12.50;60.56;100629.81;6132222;22;108126;-38
2024/03/04 07:39:44;;;;;;;7.07;4.20;;;12.40;99.90;;;12.57;60.57;100631.25;6092727;22;122728;-38
2024/03/04 07:42:09;;;;;;;12.40;4.50;;;12.50;99.90;;;12.67;60.93;100632.56;6113419;22;98688;-37
2024/03/04 07:44:42;;;;;;;9.03;4.20;;;12.40;99.90;;;12.46;60.79;100633.53;6107683;22;107195;-38
2024/03/04 07:47:07;;;;;;;6.73;3.73;;;12.40;99.90;;;12.64;60.51;100638.00;6106850;22;97422;-44
2024/03/04 07:49:33;;;;;;;9.93;4.10;;;12.50;99.90;;;12.55;60.54;100633.09;6074381;22;122971;-38
2024/03/04 07:51:59;;;;;;;9.77;3.83;;;12.50;99.90;;;12.60;60.43;100633.78;6109348;22;98000;-38
2024/03/04 07:54:25;;;;;;;8.80;3.60;;;12.50;99.90;;;12.68;60.88;100634.28;6107073;22;107649;-39
2024/03/04 07:56:50;;;;;;;5.60;3.50;;;12.50;99.90;;;12.67;60.29;100637.84;6110150;22;112918;-37
2024/03/04 07:59:19;;;;;;;8.23;4.33;;;12.50;99.90;;;12.94;58.89;100649.00;6101060;22;110345;-37
2024/03/04 08:01:51;;;;;;;7.47;3.67;;;12.80;99.90;;;13.04;59.57;100646.81;6075611;22;101906;-37
2024/03/04 08:04:17;;;;;;;12.53;4.00;;;12.80;99.90;;;12.92;59.02;100650.00;6090020;22;97141;-38
2024/03/04 08:06:46;;;;;;;7.73;3.83;;;12.80;99.90;;;12.95;59.56;100647.22;6096761;22;97758;-37
2024/03/04 08:09:14;;;;;;;8.33;3.93;;;12.70;99.90;;;12.72;59.79;100654.38;6109757;22;103759;-39
2024/03/04 08:11:40;;;;;;;7.80;4.20;;;12.70;99.90;;;12.81;59.73;100656.63;6108821;22;99253;-39
2024/03/04 08:14:06;;;;;;;14.70;4.83;;;12.70;99.90;;;12.67;59.86;100661.69;6108264;22;105203;-38
2024/03/04 08:16:31;;;;;;;7.73;4.40;;;12.60;99.90;;;12.56;60.48;100656.00;6105036;22;97586;-36
2024/03/04 08:18:58;;;;;;;10.13;4.20;;;12.50;99.90;;;12.55;60.92;100659.56;6089243;22;102233;-37
2024/03/04 08:21:23;;;;;;;11.87;5.03;;;12.40;99.90;;;12.76;60.73;100656.00;6093816;22;98494;-38
2024/03/04 08:23:51;;;;;;;8.67;3.83;;;12.50;99.90;;;12.82;59.83;100668.94;6099913;22;97487;-39
2024/03/04 08:26:17;;;;;;;10.80;4.97;;;12.70;99.90;;;12.63;60.17;100667.19;6111011;22;97109;-36
2024/03/04 08:28:44;;;;;;;7.97;3.97;;;12.60;99.90;;;12.46;60.45;100675.84;6093145;22;99313;-39
2024/03/04 08:31:10;;;;;;;10.57;4.60;;;12.50;99.90;;;12.60;61.44;100668.19;6110195;22;99056;-36
2024/03/04 08:33:35;;;;;;;10.53;4.80;;;12.40;99.90;;;12.88;60.35;100673.13;6081955;22;98163;-38
2024/03/04 08:36:03;;;;;;;8.33;4.90;;;12.70;99.90;;;12.74;60.86;100676.38;6100953;22;98058;-38
2024/03/04 08:38:29;;;;;;;8.73;4.43;;;12.60;99.90;;;12.55;59.81;100680.72;6106655;22;98509;-37
2024/03/04 08:40:55;;;;;;;11.93;4.80;;;12.60;99.90;;;12.58;60.25;100683.25;6116752;22;124848;-37
2024/03/04 08:43:20;;;;;;;9.23;4.50;;;12.50;99.90;;;12.63;60.11;100673.34;6116013;22;108200;-37
2024/03/04 08:45:48;;;;;;;9.03;5.17;;;12.50;99.90;;;12.37;60.60;100681.53;6111281;22;97487;-37
2024/03/04 08:48:17;;;;;;;12.50;4.67;;;12.40;99.90;;;12.29;61.19;100679.19;6093727;22;99656;-38
2024/03/04 08:50:42;;;;;;;11.33;4.47;;;12.30;99.90;;;12.67;60.74;100669.63;6110821;22;98241;-39
2024/03/04 08:53:08;;;;;;;14.50;5.40;;;12.40;99.90;;;12.58;60.11;100675.31;6110313;22;97991;-39
2024/03/04 08:55:34;;;;;;;7.03;4.13;;;12.50;99.90;;;12.42;60.69;100679.53;6110972;22;97635;-40
2024/03/04 08:57:59;;;;;;;10.60;4.30;;;12.40;99.90;;;12.26;61.11;100676.69;6108214;22;128632;-37
2024/03/04 09:00:25;;;;;;;10.53;4.53;;;12.20;99.90;;;12.18;61.68;100669.09;6113374;22;99134;-36
2024/03/04 09:02:51;;;;;;;11.30;4.57;;;12.20;99.90;;;12.11;62.12;100664.97;6083074;22;108322;-39
2024/03/04 09:05:17;;;;;;;8.30;4.10;;;12.10;99.90;;;12.24;61.59;100672.38;6110913;22;114237;-37
2024/03/04 09:07:43;;;;;;;6.83;4.13;;;12.20;99.90;;;12.11;61.87;100664.97;6110585;22;99056;-35
2024/03/04 09:10:09;;;;;;;11.13;4.80;;;12.10;99.90;;;12.17;61.61;100669.16;6112080;22;98642;-36
2024/03/04 09:12:34;;;;;;;11.33;4.87;;;12.10;99.90;;;12.21;61.02;100666.31;6069775;22;98125;-38
2024/03/04 09:15:00;;;;;;;7.90;4.13;;;12.20;99.90;;;12.35;60.59;100672.81;6101659;22;107492;-39
2024/03/04 09:17:26;;;;;;;7.50;4.03;;;12.30;99.90;;;12.17;60.56;100667.38;6103039;22;110540;-37
2024/03/04 09:19:51;;;;;;;10.57;4.27;;;12.20;99.90;;;12.24;60.49;100664.47;6122548;22;106836;-37
2024/03/04 09:22:17;;;;;;;7.23;4.40;;;12.20;99.90;;;12.20;60.59;100675.16;6111132;22;97666;-37
2024/03/04 09:24:43;;;;;;;9.43;3.97;;;12.20;99.90;;;12.21;60.83;100671.59;6108756;22;109841;-38
2024/03/04 09:27:09;;;;;;;9.83;4.73;;;12.20;99.90;;;12.34;60.33;100681.66;6095969;22;105174;-40
2024/03/04 09:29:35;;;;;;;6.47;3.53;;;12.20;99.90;;;12.38;60.27;100677.97;6136200;22;105993;-38
2024/03/04 09:32:01;;;;;;;7.23;4.10;;;12.30;99.90;;;12.16;60.23;100678.88;6087159;22;117800;-36
2024/03/04 09:34:26;;;;;;;7.10;3.93;;;12.20;99.90;;;12.09;60.58;100679.19;6110427;22;97169;-38
2024/03/04 09:36:52;;;;;;;9.97;4.10;;;12.10;99.90;;;12.44;60.06;100677.69;6095571;22;126672;-38
2024/03/04 09:39:18;;;;;;;6.57;4.23;;;12.30;99.90;;;12.74;60.16;100684.31;6097532;22;97845;-37
2024/03/04 09:41:44;;;;;;;9.07;3.73;;;12.50;99.90;;;12.69;59.81;100680.13;6107715;22;109495;-37
2024/03/04 09:44:10;;;;;;;6.03;3.87;;;12.60;99.90;;;12.56;59.02;100689.53;6139404;22;102525;-36
2024/03/04 09:46:37;;;;;;;8.20;3.70;;;12.60;99.90;;;12.43;59.48;100691.84;6093735;22;103745;-38
2024/03/04 09:49:05;;;;;;;8.10;3.97;;;12.40;99.90;;;12.39;58.93;100695.53;6094459;22;99504;-37
2024/03/04 09:51:32;;;;;;;7.83;4.27;;;12.40;99.90;;;12.14;59.73;100688.63;6037758;22;97670;-38
2024/03/04 09:53:58;;;;;;;11.90;4.43;;;12.20;99.90;;;12.20;59.86;100693.69;6099004;22;97050;-37
2024/03/04 09:56:24;;;;;;;8.43;3.93;;;12.20;99.90;;;12.45;59.09;100696.16;6098365;22;105926;-37
2024/03/04 09:58:51;;;;;;;5.33;3.37;;;12.40;99.90;;;12.33;59.36;100695.81;6126448;22;99335;-39
2024/03/04 10:01:18;;;;;;;7.87;3.57;;;12.30;99.90;;;12.39;59.62;100698.19;6117749;22;113413;-38
2024/03/04 10:03:45;;;;;;;6.20;3.50;;;12.30;99.90;;;12.45;58.56;100705.88;6115679;22;97603;-39